JST822 YSSY-YBBN
Flight info
| Callsign | JST822 |
|---|---|
| Flight time | N/A |
| Altitude | 37000 |
| Route | OLSEM Y193 BANDA H252 BN |
| Aircraft | A320/M-SDE3FGHIRWY/LB1 |
Departure
| Time | 2026-04-22 09:43 |
|---|---|
| Airport | Sydney Kingsford Smith International Airport (YSSY) |
Arrival
| Time | N/A |
|---|---|
| Airport | Brisbane International Airport (YBBN) |
| Time | Latitude | Longitude | Altitude | Speed | Heading |
|---|---|---|---|---|---|
| 2026-04-22 09:19 | -33.93463 | 151.17685 | 30 ft | 0 kts | 100° |
| 2026-04-22 09:30 | -33.93460 | 151.17668 | 30 ft | 2 kts | 103° |
| 2026-04-22 09:30 | -33.93456 | 151.17648 | 30 ft | 2 kts | 105° |
| 2026-04-22 09:31 | -33.93452 | 151.17629 | 30 ft | 2 kts | 109° |
| 2026-04-22 09:31 | -33.93446 | 151.17611 | 30 ft | 2 kts | 119° |
| 2026-04-22 09:31 | -33.93436 | 151.17595 | 30 ft | 2 kts | 167° |
| 2026-04-22 09:31 | -33.93425 | 151.17595 | 30 ft | 0 kts | 192° |
| 2026-04-22 09:32 | -33.93428 | 151.17594 | 30 ft | 1 kts | 192° |
| 2026-04-22 09:34 | -33.93448 | 151.17589 | 29 ft | 6 kts | 192° |
| 2026-04-22 09:34 | -33.93514 | 151.17593 | 28 ft | 12 kts | 168° |
| 2026-04-22 09:35 | -33.93693 | 151.17669 | 26 ft | 17 kts | 153° |
| 2026-04-22 09:35 | -33.93830 | 151.17719 | 21 ft | 23 kts | 145° |
| 2026-04-22 09:35 | -33.93968 | 151.17800 | 23 ft | 22 kts | 167° |
| 2026-04-22 09:35 | -33.94126 | 151.17840 | 24 ft | 24 kts | 169° |
| 2026-04-22 09:36 | -33.94291 | 151.17882 | 25 ft | 25 kts | 167° |
| 2026-04-22 09:36 | -33.94466 | 151.17901 | 26 ft | 26 kts | 199° |
| 2026-04-22 09:36 | -33.94641 | 151.17914 | 23 ft | 25 kts | 167° |
| 2026-04-22 09:36 | -33.94824 | 151.17963 | 21 ft | 28 kts | 167° |
| 2026-04-22 09:37 | -33.95013 | 151.18012 | 27 ft | 28 kts | 168° |
| 2026-04-22 09:37 | -33.95100 | 151.18112 | 26 ft | 18 kts | 77° |
| 2026-04-22 09:37 | -33.95072 | 151.18273 | 25 ft | 21 kts | 78° |
| 2026-04-22 09:37 | -33.95042 | 151.18447 | 26 ft | 18 kts | 78° |
| 2026-04-22 09:38 | -33.95018 | 151.18581 | 30 ft | 13 kts | 78° |
| 2026-04-22 09:38 | -33.94999 | 151.18692 | 25 ft | 0 kts | 78° |
| 2026-04-22 09:38 | -33.94998 | 151.18692 | 25 ft | 0 kts | 78° |
| 2026-04-22 09:42 | -33.94992 | 151.18730 | 24 ft | 12 kts | 78° |
| 2026-04-22 09:42 | -33.95012 | 151.18838 | 23 ft | 15 kts | 140° |
| 2026-04-22 09:42 | -33.95122 | 151.18874 | 23 ft | 19 kts | 168° |
| 2026-04-22 09:42 | -33.95439 | 151.18959 | 23 ft | 82 kts | 167° |
| 2026-04-22 09:43 | -33.96197 | 151.19161 | 28 ft | 138 kts | 167° |
| 2026-04-22 09:43 | -33.97188 | 151.19447 | 523 ft | 143 kts | 165° |
| 2026-04-22 09:43 | -33.98084 | 151.19944 | 1134 ft | 144 kts | 139° |
| 2026-04-22 09:43 | -33.98713 | 151.20890 | 1754 ft | 148 kts | 126° |
| 2026-04-22 09:44 | -33.99329 | 151.21977 | 2098 ft | 168 kts | 126° |
| 2026-04-22 09:44 | -34.00029 | 151.23202 | 2432 ft | 193 kts | 127° |
| 2026-04-22 09:44 | -34.00872 | 151.24584 | 2894 ft | 215 kts | 135° |
| 2026-04-22 09:44 | -34.02077 | 151.25825 | 3422 ft | 238 kts | 142° |
| 2026-04-22 09:45 | -34.03383 | 151.27128 | 4247 ft | 248 kts | 137° |
| 2026-04-22 09:45 | -34.04332 | 151.28893 | 5183 ft | 258 kts | 111° |
| 2026-04-22 09:45 | -34.04490 | 151.31074 | 6086 ft | 270 kts | 82° |
| 2026-04-22 09:45 | -34.03696 | 151.33161 | 7033 ft | 282 kts | 51° |
| 2026-04-22 09:46 | -34.02106 | 151.34587 | 7960 ft | 289 kts | 32° |
| 2026-04-22 09:46 | -34.00334 | 151.35748 | 8912 ft | 291 kts | 31° |
| 2026-04-22 09:46 | -33.98539 | 151.36904 | 9852 ft | 294 kts | 31° |
| 2026-04-22 09:46 | -33.96702 | 151.38080 | 10453 ft | 309 kts | 31° |
| 2026-04-22 09:47 | -33.94741 | 151.39342 | 10815 ft | 328 kts | 31° |
| 2026-04-22 09:47 | -33.92700 | 151.40661 | 11475 ft | 336 kts | 31° |
| 2026-04-22 09:47 | -33.90627 | 151.42007 | 12201 ft | 340 kts | 32° |
| 2026-04-22 09:47 | -33.88530 | 151.43371 | 12945 ft | 344 kts | 31° |
| 2026-04-22 09:48 | -33.86410 | 151.44748 | 13695 ft | 348 kts | 32° |
| 2026-04-22 09:48 | -33.84269 | 151.46137 | 14402 ft | 352 kts | 32° |
| 2026-04-22 09:48 | -33.82107 | 151.47540 | 15054 ft | 355 kts | 32° |
| 2026-04-22 09:48 | -33.79925 | 151.48958 | 15715 ft | 358 kts | 32° |
| 2026-04-22 09:49 | -33.77723 | 151.50389 | 16366 ft | 361 kts | 32° |
| 2026-04-22 09:49 | -33.75502 | 151.51829 | 17019 ft | 364 kts | 33° |
| 2026-04-22 09:49 | -33.73263 | 151.53281 | 17673 ft | 368 kts | 33° |
| 2026-04-22 09:49 | -33.70999 | 151.54748 | 18291 ft | 372 kts | 33° |
| 2026-04-22 09:50 | -33.68743 | 151.56210 | 18888 ft | 375 kts | 33° |
| 2026-04-22 09:50 | -33.66433 | 151.57703 | 19440 ft | 379 kts | 33° |
| 2026-04-22 09:50 | -33.64094 | 151.59210 | 20001 ft | 383 kts | 33° |
| 2026-04-22 09:50 | -33.61700 | 151.60753 | 20574 ft | 388 kts | 33° |
| 2026-04-22 09:51 | -33.59341 | 151.62277 | 21114 ft | 392 kts | 33° |
| 2026-04-22 09:51 | -33.56932 | 151.63835 | 21663 ft | 395 kts | 33° |
| 2026-04-22 09:51 | -33.54499 | 151.65405 | 22213 ft | 399 kts | 33° |
| 2026-04-22 09:51 | -33.52042 | 151.66986 | 22710 ft | 404 kts | 33° |
| 2026-04-22 09:52 | -33.49546 | 151.68590 | 23218 ft | 408 kts | 33° |
| 2026-04-22 09:52 | -33.47032 | 151.70207 | 23749 ft | 413 kts | 33° |
| 2026-04-22 09:52 | -33.44492 | 151.71839 | 24217 ft | 417 kts | 33° |
| 2026-04-22 09:52 | -33.41923 | 151.73489 | 24640 ft | 421 kts | 33° |
| 2026-04-22 09:53 | -33.39331 | 151.75153 | 25042 ft | 425 kts | 33° |
| 2026-04-22 09:53 | -33.36619 | 151.76648 | 25428 ft | 434 kts | 23° |
| 2026-04-22 09:53 | -33.33691 | 151.77672 | 25828 ft | 441 kts | 18° |
| 2026-04-22 09:53 | -33.30708 | 151.78624 | 26191 ft | 446 kts | 17° |
| 2026-04-22 09:54 | -33.27701 | 151.79588 | 26571 ft | 450 kts | 17° |
| 2026-04-22 09:54 | -33.24662 | 151.80566 | 26959 ft | 454 kts | 17° |
| 2026-04-22 09:54 | -33.21599 | 151.81551 | 27337 ft | 457 kts | 17° |
| 2026-04-22 09:54 | -33.18513 | 151.82544 | 27714 ft | 461 kts | 17° |
| 2026-04-22 09:55 | -33.15400 | 151.83548 | 28079 ft | 464 kts | 16° |
| 2026-04-22 09:55 | -33.12269 | 151.84559 | 28443 ft | 468 kts | 16° |
| 2026-04-22 09:55 | -33.09113 | 151.85575 | 28804 ft | 471 kts | 15° |
| 2026-04-22 09:55 | -33.05978 | 151.86583 | 29163 ft | 474 kts | 15° |
| 2026-04-22 09:56 | -33.02771 | 151.87609 | 29532 ft | 478 kts | 15° |
| 2026-04-22 09:56 | -32.99557 | 151.88639 | 29898 ft | 481 kts | 15° |
| 2026-04-22 09:56 | -32.96310 | 151.89679 | 30261 ft | 484 kts | 14° |
| 2026-04-22 09:56 | -32.93048 | 151.90725 | 30585 ft | 487 kts | 14° |
| 2026-04-22 09:57 | -32.89762 | 151.91780 | 30899 ft | 490 kts | 14° |
| 2026-04-22 09:57 | -32.86461 | 151.92838 | 31217 ft | 492 kts | 14° |
| 2026-04-22 09:57 | -32.83145 | 151.93899 | 31538 ft | 495 kts | 14° |
| 2026-04-22 09:57 | -32.79805 | 151.94962 | 31807 ft | 499 kts | 14° |
| 2026-04-22 09:58 | -32.76449 | 151.96026 | 32187 ft | 499 kts | 13° |
| 2026-04-22 09:58 | -32.73101 | 151.97092 | 32634 ft | 498 kts | 13° |
| 2026-04-22 09:58 | -32.69760 | 151.98161 | 33082 ft | 497 kts | 13° |
| 2026-04-22 09:58 | -32.66422 | 151.99227 | 33533 ft | 496 kts | 13° |
| 2026-04-22 09:59 | -32.63092 | 152.00290 | 33998 ft | 495 kts | 13° |
| 2026-04-22 09:59 | -32.60892 | 152.00990 | 34297 ft | 495 kts | 13° |
| 2026-04-22 09:59 | -32.57566 | 152.02047 | 34695 ft | 494 kts | 12° |
| 2026-04-22 09:59 | -32.54253 | 152.03095 | 35088 ft | 492 kts | 12° |
| 2026-04-22 10:00 | -32.50948 | 152.04140 | 35478 ft | 491 kts | 12° |
| 2026-04-22 10:00 | -32.47650 | 152.05184 | 35860 ft | 490 kts | 12° |
| 2026-04-22 10:00 | -32.44360 | 152.06225 | 36228 ft | 488 kts | 12° |
| 2026-04-22 10:00 | -32.41086 | 152.07264 | 36620 ft | 487 kts | 12° |
| 2026-04-22 10:01 | -32.37816 | 152.08301 | 36996 ft | 485 kts | 12° |
| 2026-04-22 10:01 | -32.34562 | 152.09330 | 37287 ft | 485 kts | 11° |
| 2026-04-22 10:01 | -32.28056 | 152.11379 | 37356 ft | 483 kts | 11° |
| 2026-04-22 10:02 | -32.21572 | 152.13424 | 37345 ft | 482 kts | 11° |
| 2026-04-22 10:02 | -32.15126 | 152.15455 | 37355 ft | 481 kts | 11° |
| 2026-04-22 10:03 | -32.08655 | 152.17481 | 37349 ft | 481 kts | 11° |
| 2026-04-22 10:03 | -32.02185 | 152.19513 | 37350 ft | 481 kts | 11° |
| 2026-04-22 10:04 | -31.95708 | 152.21545 | 37353 ft | 481 kts | 11° |
| 2026-04-22 10:04 | -31.89241 | 152.23567 | 37353 ft | 481 kts | 11° |
| 2026-04-22 10:05 | -31.82772 | 152.25580 | 37353 ft | 481 kts | 11° |
| 2026-04-22 10:05 | -31.76307 | 152.27601 | 37344 ft | 480 kts | 10° |
| 2026-04-22 10:06 | -31.69847 | 152.29619 | 37347 ft | 480 kts | 10° |
| 2026-04-22 10:06 | -31.63392 | 152.31631 | 37345 ft | 480 kts | 10° |
| 2026-04-22 10:07 | -31.56936 | 152.33636 | 37351 ft | 480 kts | 10° |
| 2026-04-22 10:07 | -31.50536 | 152.35618 | 37351 ft | 478 kts | 10° |
| 2026-04-22 10:08 | -31.44105 | 152.37608 | 37352 ft | 478 kts | 10° |
| 2026-04-22 10:08 | -31.37679 | 152.39591 | 37351 ft | 478 kts | 10° |
| 2026-04-22 10:09 | -31.31253 | 152.41583 | 37322 ft | 477 kts | 9° |
| 2026-04-22 10:09 | -31.24844 | 152.43569 | 37342 ft | 476 kts | 9° |
| 2026-04-22 10:10 | -31.18439 | 152.45538 | 37341 ft | 476 kts | 9° |
| 2026-04-22 10:10 | -31.12030 | 152.47502 | 37342 ft | 476 kts | 9° |
| 2026-04-22 10:11 | -31.05618 | 152.49471 | 37340 ft | 475 kts | 9° |
| 2026-04-22 10:11 | -30.99271 | 152.51421 | 37339 ft | 475 kts | 9° |
| 2026-04-22 10:12 | -30.92882 | 152.53372 | 37329 ft | 476 kts | 9° |
| 2026-04-22 10:12 | -30.86462 | 152.55330 | 37331 ft | 477 kts | 9° |
| 2026-04-22 10:13 | -30.80041 | 152.57295 | 37329 ft | 477 kts | 9° |
| 2026-04-22 10:13 | -30.73660 | 152.59464 | 37331 ft | 479 kts | 12° |
| 2026-04-22 10:14 | -30.67309 | 152.61852 | 37330 ft | 479 kts | 13° |
| 2026-04-22 10:14 | -30.60970 | 152.64234 | 37307 ft | 478 kts | 12° |
| 2026-04-22 10:15 | -30.54633 | 152.66542 | 37328 ft | 476 kts | 11° |
| 2026-04-22 10:15 | -30.48297 | 152.68803 | 37325 ft | 476 kts | 11° |
| 2026-04-22 10:16 | -30.41959 | 152.71073 | 37326 ft | 476 kts | 11° |
| 2026-04-22 10:16 | -30.35634 | 152.73358 | 37324 ft | 476 kts | 12° |
| 2026-04-22 10:17 | -30.29307 | 152.75648 | 37316 ft | 476 kts | 12° |
| 2026-04-22 10:17 | -30.22978 | 152.77926 | 37310 ft | 476 kts | 11° |
| 2026-04-22 10:18 | -30.16684 | 152.80178 | 37308 ft | 476 kts | 11° |
| 2026-04-22 10:18 | -30.10352 | 152.82449 | 37303 ft | 476 kts | 11° |
| 2026-04-22 10:19 | -30.04016 | 152.84718 | 37295 ft | 477 kts | 11° |
| 2026-04-22 10:19 | -29.97675 | 152.86988 | 37295 ft | 477 kts | 11° |
| 2026-04-22 10:20 | -29.91330 | 152.89247 | 37276 ft | 477 kts | 11° |
| 2026-04-22 10:20 | -29.84973 | 152.91511 | 37291 ft | 478 kts | 11° |
| 2026-04-22 10:21 | -29.78605 | 152.93785 | 37287 ft | 479 kts | 11° |
| 2026-04-22 10:21 | -29.72287 | 152.96031 | 37293 ft | 479 kts | 11° |
| 2026-04-22 10:22 | -29.65920 | 152.98286 | 37293 ft | 478 kts | 11° |
| 2026-04-22 10:22 | -29.59562 | 153.00543 | 37289 ft | 478 kts | 11° |
| 2026-04-22 10:23 | -29.53203 | 153.02802 | 36843 ft | 477 kts | 11° |
| 2026-04-22 10:23 | -29.50041 | 153.03925 | 36378 ft | 475 kts | 11° |
| 2026-04-22 10:23 | -29.46894 | 153.05041 | 35915 ft | 472 kts | 11° |
| 2026-04-22 10:24 | -29.43766 | 153.06147 | 35482 ft | 469 kts | 11° |
| 2026-04-22 10:24 | -29.40657 | 153.07244 | 35073 ft | 465 kts | 11° |
| 2026-04-22 10:24 | -29.37612 | 153.08316 | 34664 ft | 462 kts | 11° |
| 2026-04-22 10:24 | -29.34509 | 153.09412 | 34242 ft | 459 kts | 11° |
| 2026-04-22 10:25 | -29.31473 | 153.10483 | 33761 ft | 456 kts | 11° |
| 2026-04-22 10:25 | -29.28442 | 153.11547 | 33306 ft | 453 kts | 11° |
| 2026-04-22 10:25 | -29.25439 | 153.12603 | 32862 ft | 450 kts | 12° |
| 2026-04-22 10:25 | -29.22455 | 153.13652 | 32427 ft | 447 kts | 12° |
| 2026-04-22 10:26 | -29.19487 | 153.14695 | 31957 ft | 446 kts | 11° |
| 2026-04-22 10:26 | -29.16534 | 153.15730 | 31558 ft | 442 kts | 11° |
| 2026-04-22 10:26 | -29.13603 | 153.16757 | 31165 ft | 440 kts | 11° |
| 2026-04-22 10:26 | -29.10717 | 153.17771 | 30787 ft | 437 kts | 12° |
| 2026-04-22 10:27 | -29.07783 | 153.18804 | 30409 ft | 435 kts | 12° |
| 2026-04-22 10:27 | -29.04934 | 153.19805 | 30005 ft | 432 kts | 12° |
| 2026-04-22 10:27 | -29.02066 | 153.20808 | 29578 ft | 430 kts | 12° |
| 2026-04-22 10:27 | -28.99217 | 153.21805 | 29206 ft | 427 kts | 12° |
| 2026-04-22 10:28 | -28.96382 | 153.22798 | 28812 ft | 425 kts | 12° |
| 2026-04-22 10:28 | -28.93563 | 153.23786 | 28456 ft | 422 kts | 12° |
| 2026-04-22 10:28 | -28.90768 | 153.24765 | 28095 ft | 419 kts | 12° |
| 2026-04-22 10:28 | -28.87982 | 153.25742 | 27727 ft | 417 kts | 12° |
| 2026-04-22 10:29 | -28.85220 | 153.26709 | 27342 ft | 414 kts | 12° |
| 2026-04-22 10:29 | -28.82469 | 153.27669 | 26980 ft | 412 kts | 13° |
| 2026-04-22 10:29 | -28.79737 | 153.28621 | 26602 ft | 410 kts | 13° |
| 2026-04-22 10:29 | -28.77013 | 153.29570 | 26228 ft | 408 kts | 13° |
| 2026-04-22 10:30 | -28.74300 | 153.30514 | 25849 ft | 405 kts | 13° |
| 2026-04-22 10:30 | -28.71612 | 153.31449 | 25455 ft | 403 kts | 13° |
| 2026-04-22 10:30 | -28.68937 | 153.32381 | 25080 ft | 401 kts | 13° |
| 2026-04-22 10:30 | -28.66279 | 153.33307 | 24699 ft | 399 kts | 13° |
| 2026-04-22 10:31 | -28.63627 | 153.34230 | 24323 ft | 397 kts | 14° |
| 2026-04-22 10:31 | -28.60993 | 153.35146 | 23958 ft | 395 kts | 14° |
| 2026-04-22 10:31 | -28.58403 | 153.36048 | 23544 ft | 393 kts | 14° |
| 2026-04-22 10:31 | -28.55799 | 153.36954 | 23131 ft | 390 kts | 14° |
| 2026-04-22 10:32 | -28.53208 | 153.37851 | 22728 ft | 388 kts | 14° |
| 2026-04-22 10:32 | -28.50645 | 153.38739 | 22312 ft | 384 kts | 14° |
| 2026-04-22 10:32 | -28.48094 | 153.39625 | 21934 ft | 381 kts | 14° |
| 2026-04-22 10:32 | -28.45566 | 153.40503 | 21537 ft | 378 kts | 14° |
| 2026-04-22 10:33 | -28.43060 | 153.41374 | 21158 ft | 376 kts | 14° |
| 2026-04-22 10:33 | -28.40566 | 153.42237 | 20782 ft | 373 kts | 14° |
| 2026-04-22 10:33 | -28.38090 | 153.43092 | 20417 ft | 371 kts | 14° |
| 2026-04-22 10:33 | -28.35627 | 153.43942 | 20060 ft | 369 kts | 14° |
| 2026-04-22 10:34 | -28.33180 | 153.44789 | 19692 ft | 367 kts | 15° |
| 2026-04-22 10:34 | -28.30745 | 153.45631 | 19337 ft | 364 kts | 15° |
| 2026-04-22 10:34 | -28.28326 | 153.46467 | 18992 ft | 362 kts | 15° |
| 2026-04-22 10:34 | -28.25922 | 153.47296 | 18643 ft | 360 kts | 15° |
| 2026-04-22 10:35 | -28.23532 | 153.48119 | 18267 ft | 357 kts | 15° |
| 2026-04-22 10:35 | -28.21164 | 153.48936 | 17883 ft | 355 kts | 15° |
| 2026-04-22 10:35 | -28.18819 | 153.49671 | 17517 ft | 351 kts | 9° |
| 2026-04-22 10:35 | -28.16413 | 153.49981 | 17161 ft | 346 kts | 359° |
| 2026-04-22 10:36 | -28.14029 | 153.49819 | 16799 ft | 341 kts | 348° |
| 2026-04-22 10:36 | -28.11707 | 153.49335 | 16445 ft | 339 kts | 346° |
| 2026-04-22 10:36 | -28.09396 | 153.48848 | 16083 ft | 337 kts | 347° |
| 2026-04-22 10:36 | -28.07095 | 153.48371 | 15720 ft | 335 kts | 347° |
| 2026-04-22 10:37 | -28.04803 | 153.47898 | 15372 ft | 333 kts | 347° |
| 2026-04-22 10:37 | -28.00259 | 153.46959 | 14683 ft | 330 kts | 348° |
| 2026-04-22 10:37 | -27.97996 | 153.46490 | 14344 ft | 329 kts | 348° |
| 2026-04-22 10:38 | -27.95754 | 153.46029 | 13993 ft | 328 kts | 348° |
| 2026-04-22 10:38 | -27.93518 | 153.45568 | 13634 ft | 325 kts | 348° |
| 2026-04-22 10:38 | -27.91295 | 153.45108 | 13247 ft | 324 kts | 348° |
| 2026-04-22 10:38 | -27.89087 | 153.44651 | 12904 ft | 322 kts | 348° |
| 2026-04-22 10:39 | -27.86883 | 153.44198 | 12525 ft | 321 kts | 348° |
| 2026-04-22 10:39 | -27.84723 | 153.43754 | 12191 ft | 319 kts | 348° |
| 2026-04-22 10:39 | -27.82546 | 153.43304 | 11837 ft | 317 kts | 348° |
| 2026-04-22 10:39 | -27.80393 | 153.42859 | 11566 ft | 313 kts | 348° |
| 2026-04-22 10:40 | -27.78260 | 153.42419 | 11247 ft | 310 kts | 348° |
| 2026-04-22 10:40 | -27.76142 | 153.41983 | 10910 ft | 309 kts | 348° |
| 2026-04-22 10:40 | -27.74008 | 153.41545 | 10591 ft | 307 kts | 348° |
| 2026-04-22 10:40 | -27.71914 | 153.41115 | 10264 ft | 305 kts | 348° |
| 2026-04-22 10:41 | -27.69854 | 153.40689 | 9926 ft | 304 kts | 348° |
| 2026-04-22 10:41 | -27.67782 | 153.40262 | 9573 ft | 303 kts | 348° |
| 2026-04-22 10:41 | -27.65711 | 153.39834 | 9194 ft | 303 kts | 348° |
| 2026-04-22 10:41 | -27.63628 | 153.39499 | 8840 ft | 302 kts | 357° |
| 2026-04-22 10:42 | -27.61536 | 153.39546 | 8488 ft | 301 kts | 2° |
| 2026-04-22 10:42 | -27.59454 | 153.39645 | 8151 ft | 299 kts | 2° |
| 2026-04-22 10:42 | -27.57376 | 153.39743 | 7826 ft | 298 kts | 2° |
| 2026-04-22 10:42 | -27.55307 | 153.39840 | 7499 ft | 296 kts | 2° |
| 2026-04-22 10:43 | -27.53254 | 153.39934 | 7188 ft | 294 kts | 2° |
| 2026-04-22 10:43 | -27.51239 | 153.40026 | 7061 ft | 285 kts | 2° |
| 2026-04-22 10:43 | -27.49285 | 153.40116 | 6938 ft | 277 kts | 2° |
| 2026-04-22 10:43 | -27.47391 | 153.40202 | 6817 ft | 268 kts | 2° |
| 2026-04-22 10:44 | -27.45559 | 153.40285 | 6691 ft | 259 kts | 2° |
| 2026-04-22 10:44 | -27.43793 | 153.40367 | 6568 ft | 250 kts | 2° |
| 2026-04-22 10:44 | -27.42075 | 153.40447 | 6439 ft | 242 kts | 2° |
| 2026-04-22 10:44 | -27.40419 | 153.40523 | 6309 ft | 234 kts | 2° |
| 2026-04-22 10:45 | -27.38821 | 153.40595 | 6186 ft | 226 kts | 2° |
| 2026-04-22 10:45 | -27.37259 | 153.40665 | 6057 ft | 223 kts | 2° |
| 2026-04-22 10:45 | -27.35730 | 153.40732 | 5931 ft | 222 kts | 2° |
| 2026-04-22 10:45 | -27.34203 | 153.40800 | 5851 ft | 220 kts | 2° |
| 2026-04-22 10:46 | -27.32707 | 153.40867 | 5715 ft | 210 kts | 2° |
| 2026-04-22 10:46 | -27.31279 | 153.40932 | 5577 ft | 201 kts | 2° |
| 2026-04-22 10:46 | -27.29913 | 153.40996 | 5450 ft | 193 kts | 2° |
| 2026-04-22 10:46 | -27.28598 | 153.41058 | 5317 ft | 186 kts | 2° |
| 2026-04-22 10:47 | -27.27331 | 153.41116 | 5193 ft | 179 kts | 2° |
| 2026-04-22 10:47 | -27.26112 | 153.41170 | 5058 ft | 172 kts | 3° |
| 2026-04-22 10:47 | -27.24929 | 153.41224 | 4936 ft | 169 kts | 2° |
| 2026-04-22 10:47 | -27.23758 | 153.41277 | 4948 ft | 169 kts | 2° |
| 2026-04-22 10:48 | -27.22578 | 153.41329 | 4943 ft | 169 kts | 2° |
| 2026-04-22 10:48 | -27.21403 | 153.41297 | 4952 ft | 174 kts | 353° |
| 2026-04-22 10:48 | -27.20552 | 153.41145 | 4974 ft | 199 kts | 346° |
| 2026-04-22 10:48 | -27.18710 | 153.40409 | 4957 ft | 216 kts | 330° |
| 2026-04-22 10:49 | -27.17856 | 153.39845 | 4957 ft | 216 kts | 322° |
| 2026-04-22 10:49 | -27.16685 | 153.38798 | 4953 ft | 215 kts | 316° |
| 2026-04-22 10:49 | -27.15538 | 153.37718 | 4957 ft | 215 kts | 316° |
| 2026-04-22 10:49 | -27.14439 | 153.36597 | 4959 ft | 212 kts | 306° |
| 2026-04-22 10:50 | -27.13681 | 153.35209 | 4955 ft | 207 kts | 287° |
| 2026-04-22 10:50 | -27.13351 | 153.33665 | 4934 ft | 202 kts | 269° |
| 2026-04-22 10:50 | -27.13443 | 153.32129 | 4818 ft | 194 kts | 251° |
| 2026-04-22 10:50 | -27.13904 | 153.30732 | 4672 ft | 189 kts | 238° |